Pagrindinis puslapis
METAR-TAF:

METAR-TAF

Oro uostai :

Andavajlasas, Peru

platuma: 13-43S, ilguma: 073-21W, Aukštis: 3444 m

METAR: trūkstamas

Laikas: 23:29 (04:29 UTC)

Prognozė

Ataskaita buvo paskelbta 11 valandos ir 29 minutes, ne 17:00 UTC
Prognozė galioja nuo 15 metu 18 UTC su 16 metu 18 UTC
Vėjas 10 kt iš Šiaurės
Matomumas: 8000 m
Išsisklaidę debesys ne aukštis 1200 ft
Su prošvaistėmis ne aukštis 5000 ft
Tapsmas
nuo 15 metu 21 UTC su 15 metu 23 UTC
Vėjas kt iš Šiaurės

TAF: SPHY 151700Z 1518/1618 36010KT 8000 SCT012 BKN050 TX14/1519Z TN02/1611Z BECMG 1521/1523 00000KT

Orai ataskaitas ir orų prognozės (METAR, TAF).

turimą stotys yra geltonos ir raudonos taškus žemėlapyje.

Perkelti pele per norėdami pamatyti stoties vardą.

Tada spustelėkite, norėdami matyti oro stebėjimo ir prognozės.

Norėdami pakeisti žemėlapį: spustelėkite ant žalios mygtukų su juodo kryžiaus žemyn,; žalią mygtuką su brūkšneliu, jei norite nutolinti; arba žalių rodyklių gretimoms žemėlapius.


METAR-TAF: